sensor_id;sensor_type;location;lat;lon;timestamp;pressure;altitude;pressure_sealevel;temperature;humidity
43691;BME280;29293;52.190;21.226;2023-02-18T00:03:54;99232.77;;;6.40;100.00
43691;BME280;29293;52.190;21.226;2023-02-18T00:19:09;99258.86;;;6.24;100.00
43691;BME280;29293;52.190;21.226;2023-02-18T00:34:19;99295.11;;;6.06;100.00
43691;BME280;29293;52.190;21.226;2023-02-18T00:49:29;99304.59;;;5.90;100.00
43691;BME280;29293;52.190;21.226;2023-02-18T01:04:41;99305.90;;;5.76;100.00
43691;BME280;29293;52.190;21.226;2023-02-18T01:19:49;99313.77;;;5.73;100.00
43691;BME280;29293;52.190;21.226;2023-02-18T01:35:00;99310.31;;;5.72;100.00
43691;BME280;29293;52.190;21.226;2023-02-18T01:50:11;99308.92;;;5.55;100.00
43691;BME280;29293;52.190;21.226;2023-02-18T02:05:24;99308.39;;;5.55;100.00
43691;BME280;29293;52.190;21.226;2023-02-18T02:36:11;99294.73;;;5.60;100.00
43691;BME280;29293;52.190;21.226;2023-02-18T02:51:26;99299.86;;;5.51;100.00
43691;BME280;29293;52.190;21.226;2023-02-18T03:06:48;99309.20;;;5.40;100.00
43691;BME280;29293;52.190;21.226;2023-02-18T03:22:04;99328.55;;;5.34;100.00
43691;BME280;29293;52.190;21.226;2023-02-18T03:37:13;99349.60;;;5.25;100.00
43691;BME280;29293;52.190;21.226;2023-02-18T03:52:22;99362.48;;;5.10;100.00
43691;BME280;29293;52.190;21.226;2023-02-18T04:07:29;99369.33;;;5.00;100.00
43691;BME280;29293;52.190;21.226;2023-02-18T04:22:38;99374.40;;;4.96;100.00
43691;BME280;29293;52.190;21.226;2023-02-18T04:37:48;99387.59;;;4.89;100.00
43691;BME280;29293;52.190;21.226;2023-02-18T04:52:57;99389.63;;;4.81;100.00
43691;BME280;29293;52.190;21.226;2023-02-18T05:08:06;99394.33;;;4.78;100.00
43691;BME280;29293;52.190;21.226;2023-02-18T05:23:14;99403.30;;;4.74;100.00
43691;BME280;29293;52.190;21.226;2023-02-18T05:38:23;99426.50;;;4.66;100.00
43691;BME280;29293;52.190;21.226;2023-02-18T05:53:31;99443.56;;;4.66;100.00
43691;BME280;29293;52.190;21.226;2023-02-18T06:08:38;99450.05;;;4.66;100.00
43691;BME280;29293;52.190;21.226;2023-02-18T06:23:46;99456.31;;;4.69;100.00
43691;BME280;29293;52.190;21.226;2023-02-18T06:38:54;99486.05;;;4.69;100.00
43691;BME280;29293;52.190;21.226;2023-02-18T06:54:05;99507.88;;;4.77;100.00
43691;BME280;29293;52.190;21.226;2023-02-18T07:09:15;99497.52;;;4.82;100.00
43691;BME280;29293;52.190;21.226;2023-02-18T07:24:24;99502.63;;;4.93;100.00
43691;BME280;29293;52.190;21.226;2023-02-18T07:39:33;99517.11;;;5.08;100.00
43691;BME280;29293;52.190;21.226;2023-02-18T07:54:43;99518.91;;;5.20;100.00
43691;BME280;29293;52.190;21.226;2023-02-18T08:09:51;99521.83;;;5.28;100.00
43691;BME280;29293;52.190;21.226;2023-02-18T08:24:59;99537.41;;;5.31;100.00
43691;BME280;29293;52.190;21.226;2023-02-18T08:40:12;99538.23;;;5.47;100.00
43691;BME280;29293;52.190;21.226;2023-02-18T08:55:22;99534.27;;;5.66;100.00
43691;BME280;29293;52.190;21.226;2023-02-18T09:10:32;99546.28;;;5.79;100.00
43691;BME280;29293;52.190;21.226;2023-02-18T09:25:48;99547.30;;;6.10;100.00
43691;BME280;29293;52.190;21.226;2023-02-18T09:40:59;99560.50;;;6.31;100.00
43691;BME280;29293;52.190;21.226;2023-02-18T09:56:09;99567.30;;;6.39;100.00
43691;BME280;29293;52.190;21.226;2023-02-18T10:11:30;99584.52;;;6.38;100.00
43691;BME280;29293;52.190;21.226;2023-02-18T10:26:40;99587.00;;;6.38;100.00
43691;BME280;29293;52.190;21.226;2023-02-18T10:41:59;99582.41;;;6.60;100.00
43691;BME280;29293;52.190;21.226;2023-02-18T10:57:17;99577.13;;;6.85;100.00
43691;BME280;29293;52.190;21.226;2023-02-18T11:12:32;99576.36;;;6.67;100.00
43691;BME280;29293;52.190;21.226;2023-02-18T11:27:45;99576.09;;;6.49;100.00
43691;BME280;29293;52.190;21.226;2023-02-18T11:43:06;99561.98;;;6.50;100.00
43691;BME280;29293;52.190;21.226;2023-02-18T11:58:19;99547.98;;;6.54;100.00
43691;BME280;29293;52.190;21.226;2023-02-18T12:13:32;99541.49;;;6.79;100.00
43691;BME280;29293;52.190;21.226;2023-02-18T12:28:56;99546.56;;;6.59;100.00
43691;BME280;29293;52.190;21.226;2023-02-18T12:44:19;99527.82;;;6.61;100.00
43691;BME280;29293;52.190;21.226;2023-02-18T13:00:08;99518.95;;;6.62;100.00
43691;BME280;29293;52.190;21.226;2023-02-18T13:15:37;99511.91;;;6.75;100.00
43691;BME280;29293;52.190;21.226;2023-02-18T13:30:55;99495.87;;;6.73;100.00
43691;BME280;29293;52.190;21.226;2023-02-18T13:46:13;99497.55;;;6.57;100.00
43691;BME280;29293;52.190;21.226;2023-02-18T14:01:24;99507.00;;;6.30;100.00
43691;BME280;29293;52.190;21.226;2023-02-18T14:32:25;99484.48;;;6.14;100.00
43691;BME280;29293;52.190;21.226;2023-02-18T14:47:43;99458.72;;;5.92;100.00
43691;BME280;29293;52.190;21.226;2023-02-18T15:02:59;99434.06;;;5.79;100.00
43691;BME280;29293;52.190;21.226;2023-02-18T15:18:19;99432.38;;;5.69;100.00
43691;BME280;29293;52.190;21.226;2023-02-18T15:33:30;99448.22;;;5.22;100.00
43691;BME280;29293;52.190;21.226;2023-02-18T15:48:44;99460.84;;;4.27;100.00
43691;BME280;29293;52.190;21.226;2023-02-18T16:03:55;99466.52;;;3.77;100.00
43691;BME280;29293;52.190;21.226;2023-02-18T16:19:18;99471.64;;;3.42;100.00
43691;BME280;29293;52.190;21.226;2023-02-18T16:34:30;99472.57;;;3.25;100.00
43691;BME280;29293;52.190;21.226;2023-02-18T16:49:44;99478.80;;;3.13;100.00
43691;BME280;29293;52.190;21.226;2023-02-18T17:04:54;99472.61;;;3.01;100.00
43691;BME280;29293;52.190;21.226;2023-02-18T17:20:07;99471.70;;;2.98;100.00
43691;BME280;29293;52.190;21.226;2023-02-18T17:35:19;99462.39;;;2.98;100.00
43691;BME280;29293;52.190;21.226;2023-02-18T17:50:29;99460.30;;;3.00;100.00
43691;BME280;29293;52.190;21.226;2023-02-18T18:05:42;99462.11;;;3.01;100.00
43691;BME280;29293;52.190;21.226;2023-02-18T18:20:53;99444.71;;;3.02;100.00
43691;BME280;29293;52.190;21.226;2023-02-18T18:36:03;99427.42;;;2.99;100.00
43691;BME280;29293;52.190;21.226;2023-02-18T18:51:15;99429.63;;;2.97;100.00
43691;BME280;29293;52.190;21.226;2023-02-18T19:06:25;99410.88;;;2.82;100.00
43691;BME280;29293;52.190;21.226;2023-02-18T19:21:35;99438.56;;;2.69;100.00
43691;BME280;29293;52.190;21.226;2023-02-18T19:36:43;99475.15;;;2.68;100.00
43691;BME280;29293;52.190;21.226;2023-02-18T19:51:54;99489.41;;;2.64;100.00
43691;BME280;29293;52.190;21.226;2023-02-18T20:07:10;99514.25;;;2.61;100.00
43691;BME280;29293;52.190;21.226;2023-02-18T20:22:20;99542.07;;;2.63;100.00
43691;BME280;29293;52.190;21.226;2023-02-18T20:37:30;99559.31;;;2.67;100.00
43691;BME280;29293;52.190;21.226;2023-02-18T20:52:39;99573.96;;;2.67;100.00
43691;BME280;29293;52.190;21.226;2023-02-18T21:07:50;99586.50;;;2.69;100.00
43691;BME280;29293;52.190;21.226;2023-02-18T21:22:59;99602.08;;;2.71;100.00
43691;BME280;29293;52.190;21.226;2023-02-18T21:38:10;99609.73;;;2.73;100.00
43691;BME280;29293;52.190;21.226;2023-02-18T21:53:19;99638.20;;;2.70;100.00
43691;BME280;29293;52.190;21.226;2023-02-18T22:08:29;99661.39;;;2.42;100.00
43691;BME280;29293;52.190;21.226;2023-02-18T22:23:40;99695.99;;;2.05;100.00
43691;BME280;29293;52.190;21.226;2023-02-18T22:38:50;99720.35;;;1.92;100.00
43691;BME280;29293;52.190;21.226;2023-02-18T22:54:00;99735.57;;;2.09;100.00
43691;BME280;29293;52.190;21.226;2023-02-18T23:09:12;99749.91;;;2.15;100.00
43691;BME280;29293;52.190;21.226;2023-02-18T23:24:23;99761.29;;;2.13;100.00
43691;BME280;29293;52.190;21.226;2023-02-18T23:39:32;99783.75;;;2.05;100.00
43691;BME280;29293;52.190;21.226;2023-02-18T23:54:42;99796.44;;;1.99;100.00
